createdAt,value
2019-03-13T00:01:34.835Z,6.80
2019-03-13T00:04:05.713Z,6.70
2019-03-13T00:06:37.999Z,5.83
2019-03-13T00:09:13.187Z,8.20
2019-03-13T00:11:44.250Z,8.13
2019-03-13T00:14:14.870Z,11.20
2019-03-13T00:16:45.642Z,10.90
2019-03-13T00:19:16.546Z,8.75
2019-03-13T00:21:48.248Z,9.10
2019-03-13T00:24:18.989Z,9.23
2019-03-13T00:26:49.889Z,12.53
2019-03-13T00:29:20.488Z,11.80
2019-03-13T00:31:51.485Z,11.63
2019-03-13T00:34:22.267Z,12.80
2019-03-13T00:36:53.016Z,11.80
2019-03-13T00:39:27.058Z,13.40
2019-03-13T00:41:57.710Z,12.40
2019-03-13T00:44:28.479Z,13.20
2019-03-13T00:47:00.312Z,11.83
2019-03-13T00:49:31.143Z,10.48
2019-03-13T00:52:02.024Z,11.10
2019-03-13T00:54:32.758Z,11.97
2019-03-13T00:57:03.870Z,13.98
2019-03-13T00:59:34.440Z,9.70
2019-03-13T01:02:27.215Z,12.13
2019-03-13T01:05:25.783Z,11.60
2019-03-13T01:07:58.137Z,13.10
2019-03-13T01:10:28.872Z,10.80
2019-03-13T01:12:59.633Z,14.65
2019-03-13T01:15:30.431Z,12.20
2019-03-13T01:18:01.347Z,14.83
2019-03-13T01:20:32.015Z,12.98
2019-03-13T01:23:02.932Z,18.52
2019-03-13T01:25:33.667Z,15.35
2019-03-13T01:28:05.985Z,14.07
2019-03-13T01:30:48.536Z,13.65
2019-03-13T01:33:20.284Z,15.70
2019-03-13T01:35:56.025Z,15.85
2019-03-13T01:38:26.614Z,16.82
2019-03-13T01:40:57.523Z,15.65
2019-03-13T01:43:28.317Z,17.17
2019-03-13T01:46:00.162Z,17.73
2019-03-13T01:48:31.032Z,21.07
2019-03-13T01:51:02.107Z,15.95
2019-03-13T01:53:33.364Z,16.00
2019-03-13T01:56:03.943Z,15.55
2019-03-13T01:58:34.767Z,15.05
2019-03-13T02:01:07.291Z,17.17
2019-03-13T02:03:38.076Z,12.45
2019-03-13T02:06:09.226Z,15.78
2019-03-13T02:08:39.876Z,19.30
2019-03-13T02:11:11.026Z,17.55
2019-03-13T02:13:42.297Z,12.33
2019-03-13T02:16:12.854Z,13.62
2019-03-13T02:18:43.408Z,15.30
2019-03-13T02:21:15.734Z,19.17
2019-03-13T02:23:46.615Z,16.95
2019-03-13T02:26:18.769Z,18.27
2019-03-13T02:28:50.029Z,18.32
2019-03-13T02:31:20.787Z,15.68
2019-03-13T02:33:51.763Z,20.68
2019-03-13T02:36:22.352Z,16.87
2019-03-13T02:38:53.064Z,17.00
2019-03-13T02:41:24.362Z,15.00
2019-03-13T02:43:55.100Z,17.40
2019-03-13T02:46:25.799Z,14.63
2019-03-13T02:48:56.554Z,17.45
2019-03-13T02:51:27.250Z,17.75
2019-03-13T02:53:58.415Z,17.25
2019-03-13T02:56:30.757Z,17.90
2019-03-13T02:59:01.508Z,16.48
2019-03-13T03:01:51.027Z,14.45
2019-03-13T03:04:21.905Z,15.63
2019-03-13T03:06:52.740Z,13.78
2019-03-13T03:09:23.599Z,16.73
2019-03-13T03:11:54.399Z,14.45
2019-03-13T03:14:26.653Z,13.83
2019-03-13T03:16:57.509Z,14.87
2019-03-13T03:19:31.695Z,13.95
2019-03-13T03:22:02.451Z,15.32
2019-03-13T03:24:34.255Z,15.45
2019-03-13T03:27:04.904Z,15.53
2019-03-13T03:29:38.917Z,13.88
2019-03-13T03:32:09.118Z,14.98
2019-03-13T03:34:39.921Z,11.22
2019-03-13T03:37:10.588Z,13.18
2019-03-13T03:39:41.514Z,13.70
2019-03-13T03:42:12.112Z,13.15
2019-03-13T03:44:42.685Z,12.70
2019-03-13T03:47:13.139Z,13.08
2019-03-13T03:49:44.282Z,16.80
2019-03-13T03:52:14.893Z,20.50
2019-03-13T03:54:45.606Z,17.98
2019-03-13T03:57:16.539Z,15.30
2019-03-13T03:59:49.260Z,19.52
2019-03-13T04:02:19.995Z,18.30
2019-03-13T04:04:50.851Z,18.05
2019-03-13T04:07:21.678Z,16.90
2019-03-13T04:09:52.353Z,22.05
2019-03-13T04:12:23.077Z,19.32
2019-03-13T04:14:54.203Z,19.23
2019-03-13T04:17:24.929Z,20.75
2019-03-13T04:19:55.644Z,23.73
2019-03-13T04:22:26.308Z,18.70
2019-03-13T04:25:11.106Z,16.32
2019-03-13T04:27:41.953Z,15.95
2019-03-13T04:30:15.327Z,18.67
2019-03-13T04:32:47.042Z,17.98
2019-03-13T04:35:18.000Z,19.80
2019-03-13T04:37:48.819Z,19.42
2019-03-13T04:40:19.628Z,22.13
2019-03-13T04:42:50.364Z,19.50
2019-03-13T04:45:22.212Z,18.85
2019-03-13T04:47:52.816Z,17.87
2019-03-13T04:50:24.083Z,17.98
2019-03-13T04:52:55.377Z,17.05
2019-03-13T04:55:27.582Z,19.57
2019-03-13T04:57:58.685Z,19.00
2019-03-13T05:00:30.169Z,19.07
2019-03-13T05:03:01.193Z,20.55
2019-03-13T05:05:48.370Z,19.77
2019-03-13T05:08:26.604Z,19.75
2019-03-13T05:10:58.472Z,17.35
2019-03-13T05:13:29.206Z,18.37
2019-03-13T05:16:00.105Z,17.57
2019-03-13T05:18:30.887Z,18.25
2019-03-13T05:21:01.916Z,13.93
2019-03-13T05:23:32.695Z,19.65
2019-03-13T05:26:03.515Z,15.90
2019-03-13T05:28:34.429Z,17.55
2019-03-13T05:31:05.620Z,14.68
2019-03-13T05:33:36.707Z,18.15
2019-03-13T05:36:07.665Z,18.07
2019-03-13T05:38:38.547Z,14.93
2019-03-13T05:41:10.580Z,19.00
2019-03-13T05:43:41.554Z,12.80
2019-03-13T05:46:13.009Z,22.50
2019-03-13T05:48:43.775Z,15.63
2019-03-13T05:51:16.455Z,17.33
2019-03-13T05:53:48.839Z,13.00
2019-03-13T05:56:19.928Z,13.10
2019-03-13T05:58:52.116Z,16.70
2019-03-13T06:01:22.984Z,14.20
2019-03-13T06:03:53.685Z,12.80
2019-03-13T06:06:26.065Z,16.83
2019-03-13T06:08:57.564Z,19.77
2019-03-13T06:11:28.259Z,14.70
2019-03-13T06:13:59.086Z,18.47
2019-03-13T06:16:30.019Z,13.73
2019-03-13T06:19:00.758Z,12.77
2019-03-13T06:21:55.688Z,13.40
2019-03-13T06:24:26.673Z,12.63
2019-03-13T06:26:57.587Z,16.23
2019-03-13T06:29:31.590Z,13.97
2019-03-13T06:32:00.941Z,14.40
2019-03-13T06:34:31.618Z,14.10
2019-03-13T06:37:02.451Z,14.23
2019-03-13T06:39:33.138Z,18.10
2019-03-13T06:42:04.104Z,15.60
2019-03-13T06:44:35.215Z,16.97
2019-03-13T06:47:05.531Z,21.67
2019-03-13T06:49:36.633Z,14.90
2019-03-13T06:52:08.333Z,16.80
2019-03-13T06:54:38.866Z,21.47
2019-03-13T06:57:09.524Z,17.50
2019-03-13T06:59:57.697Z,20.13
2019-03-13T07:02:41.221Z,22.07
2019-03-13T07:05:30.491Z,15.77
2019-03-13T07:08:27.659Z,19.20
2019-03-13T07:11:15.181Z,13.67
2019-03-13T07:14:05.414Z,15.03
2019-03-13T07:17:07.228Z,11.57
2019-03-13T07:20:02.971Z,12.17
2019-03-13T07:22:50.789Z,12.03
2019-03-13T07:25:52.716Z,16.37
2019-03-13T07:28:41.826Z,11.90
2019-03-13T07:31:23.457Z,11.00
2019-03-13T07:34:08.071Z,11.93
2019-03-13T07:36:50.938Z,18.53
2019-03-13T07:40:10.791Z,11.70
2019-03-13T07:42:54.341Z,16.47
2019-03-13T07:45:43.474Z,12.10
2019-03-13T07:48:32.537Z,12.67
2019-03-13T07:51:11.168Z,11.20
2019-03-13T07:53:53.050Z,11.57
2019-03-13T07:56:45.116Z,13.63
2019-03-13T07:59:23.518Z,13.50
2019-03-13T08:02:13.392Z,12.10
2019-03-13T08:04:56.522Z,12.97
2019-03-13T08:07:51.118Z,14.80
2019-03-13T08:10:40.588Z,12.63
2019-03-13T08:13:29.750Z,12.40
2019-03-13T08:16:17.594Z,12.87
2019-03-13T08:19:05.535Z,11.83
2019-03-13T08:21:53.771Z,14.07
2019-03-13T08:24:46.222Z,11.63
2019-03-13T08:27:38.518Z,14.40
2019-03-13T08:30:43.502Z,11.57
2019-03-13T08:33:45.162Z,15.57
2019-03-13T08:36:40.510Z,12.40
2019-03-13T08:39:16.914Z,15.03
2019-03-13T08:42:04.914Z,19.00
2019-03-13T08:44:56.917Z,12.13
2019-03-13T08:47:35.526Z,10.67
2019-03-13T08:50:31.263Z,11.67
2019-03-13T08:53:19.824Z,13.00
2019-03-13T08:55:58.324Z,11.73
2019-03-13T08:58:50.264Z,11.50
2019-03-13T09:01:39.632Z,10.27
2019-03-13T09:04:26.250Z,13.13
2019-03-13T09:07:17.876Z,12.93
2019-03-13T09:09:54.457Z,11.67
2019-03-13T09:12:46.559Z,9.87
2019-03-13T09:15:36.151Z,10.00
2019-03-13T09:18:43.648Z,11.63
2019-03-13T09:21:26.464Z,13.03
2019-03-13T09:24:12.972Z,12.73
2019-03-13T09:26:59.474Z,9.90
2019-03-13T09:29:49.268Z,10.33
2019-03-13T09:32:45.909Z,11.77
2019-03-13T09:35:46.984Z,12.20
2019-03-13T09:38:44.934Z,11.00
2019-03-13T09:41:33.170Z,12.53
2019-03-13T09:44:29.295Z,11.53
2019-03-13T09:47:08.657Z,14.67
2019-03-13T09:49:58.122Z,10.03
2019-03-13T09:52:55.802Z,11.47
2019-03-13T09:55:44.042Z,16.97
2019-03-13T09:58:40.667Z,9.93
2019-03-13T10:01:28.842Z,13.23
2019-03-13T10:04:17.181Z,14.07
2019-03-13T10:07:01.906Z,8.80
2019-03-13T10:09:52.428Z,9.30
2019-03-13T10:12:33.397Z,9.63
2019-03-13T10:15:22.577Z,11.83
2019-03-13T10:18:19.525Z,11.13
2019-03-13T10:21:07.444Z,8.80
2019-03-13T10:24:07.296Z,11.90
2019-03-13T10:27:02.912Z,10.43
2019-03-13T10:29:55.021Z,10.30
2019-03-13T10:32:42.870Z,10.90
2019-03-13T10:35:30.794Z,13.03
2019-03-13T10:38:32.494Z,9.70
2019-03-13T10:41:12.402Z,14.50
2019-03-13T10:44:01.568Z,9.27
2019-03-13T10:46:47.180Z,12.07
2019-03-13T10:49:36.858Z,12.40
2019-03-13T10:52:30.821Z,13.43
2019-03-13T10:55:08.460Z,13.10
2019-03-13T10:58:00.567Z,11.87
2019-03-13T11:00:58.946Z,16.70
2019-03-13T11:03:54.269Z,11.90
2019-03-13T11:06:54.970Z,11.70
2019-03-13T11:09:26.683Z,10.90
2019-03-13T11:12:02.732Z,11.67
2019-03-13T11:14:50.978Z,13.30
2019-03-13T11:17:40.651Z,14.63
2019-03-13T11:20:38.214Z,12.90
2019-03-13T11:23:43.663Z,15.40
2019-03-13T11:26:32.011Z,12.77
2019-03-13T11:29:22.724Z,13.47
2019-03-13T11:32:12.217Z,19.77
2019-03-13T11:34:49.768Z,15.17
2019-03-13T11:37:39.258Z,11.00
2019-03-13T11:40:23.214Z,14.83
2019-03-13T11:43:07.742Z,14.80
2019-03-13T11:45:54.143Z,14.20
2019-03-13T11:48:43.430Z,17.90
2019-03-13T11:51:49.169Z,14.03
2019-03-13T11:54:36.213Z,13.33
2019-03-13T11:57:21.802Z,15.40
2019-03-13T12:00:02.063Z,11.83
2019-03-13T12:02:57.667Z,13.50
2019-03-13T12:05:53.892Z,15.53
2019-03-13T12:08:41.757Z,15.47
2019-03-13T12:11:40.436Z,13.33
2019-03-13T12:14:36.253Z,13.93
2019-03-13T12:17:23.978Z,13.83
2019-03-13T12:20:06.391Z,11.70
2019-03-13T12:23:14.198Z,22.63
2019-03-13T12:26:03.510Z,13.33
2019-03-13T12:28:46.909Z,10.37
2019-03-13T12:31:54.920Z,11.60
2019-03-13T12:35:02.809Z,12.60
2019-03-13T12:37:55.574Z,14.73
2019-03-13T12:40:38.636Z,15.00
2019-03-13T12:43:25.753Z,17.23
2019-03-13T12:46:15.715Z,12.13
2019-03-13T12:49:08.622Z,16.77
2019-03-13T12:51:53.225Z,13.23
2019-03-13T12:54:58.366Z,11.20
2019-03-13T12:57:54.397Z,14.43
2019-03-13T13:00:33.420Z,9.80
2019-03-13T13:03:17.175Z,9.90
2019-03-13T13:06:02.052Z,9.90
2019-03-13T13:09:03.886Z,8.57
2019-03-13T13:11:53.364Z,15.77
2019-03-13T13:14:42.335Z,10.40
2019-03-13T13:17:35.791Z,8.17
2019-03-13T13:20:07.392Z,12.03
2019-03-13T13:22:37.942Z,10.30
2019-03-13T13:25:09.727Z,10.80
2019-03-13T13:27:40.388Z,14.13
2019-03-13T13:30:12.146Z,17.23
2019-03-13T13:32:43.008Z,8.57
2019-03-13T13:35:14.058Z,11.97
2019-03-13T13:37:44.735Z,9.03
2019-03-13T13:40:15.673Z,8.90
2019-03-13T13:42:46.476Z,10.53
2019-03-13T13:45:47.365Z,14.90
2019-03-13T13:48:17.854Z,9.07
2019-03-13T13:50:48.301Z,9.73
2019-03-13T13:53:18.819Z,8.57
2019-03-13T13:55:49.472Z,10.50
2019-03-13T13:58:20.026Z,14.50
2019-03-13T14:00:50.676Z,11.20
2019-03-13T14:03:23.030Z,7.77
2019-03-13T14:05:53.789Z,15.63
2019-03-13T14:08:25.459Z,12.63
2019-03-13T14:10:56.290Z,10.53
2019-03-13T14:13:27.396Z,7.43
2019-03-13T14:15:58.244Z,9.33
2019-03-13T14:18:29.437Z,7.30
2019-03-13T14:21:00.181Z,10.10
2019-03-13T14:23:30.774Z,10.17
2019-03-13T14:26:01.516Z,10.00
2019-03-13T14:28:31.969Z,10.17
2019-03-13T14:31:03.598Z,13.07
2019-03-13T14:33:33.956Z,10.93
2019-03-13T14:36:04.657Z,9.53
2019-03-13T14:38:35.149Z,11.80
2019-03-13T14:41:06.248Z,10.03
2019-03-13T14:43:36.902Z,13.00
2019-03-13T14:46:07.712Z,16.57
2019-03-13T14:48:38.360Z,14.23
2019-03-13T14:51:09.117Z,11.40
2019-03-13T14:53:40.211Z,9.50
2019-03-13T14:56:10.940Z,14.10
2019-03-13T14:58:41.414Z,10.43
2019-03-13T15:01:12.168Z,12.13
2019-03-13T15:03:42.743Z,11.70
2019-03-13T15:06:13.416Z,16.10
2019-03-13T15:08:44.274Z,9.43
2019-03-13T15:11:15.138Z,11.43
2019-03-13T15:13:45.698Z,18.00
2019-03-13T15:16:16.368Z,17.27
2019-03-13T15:18:47.342Z,9.73
2019-03-13T15:21:18.019Z,12.50
2019-03-13T15:23:48.908Z,10.17
2019-03-13T15:26:19.574Z,14.83
2019-03-13T15:28:50.113Z,14.23
2019-03-13T15:31:21.182Z,12.03
2019-03-13T15:33:52.114Z,19.37
2019-03-13T15:36:22.777Z,13.03
2019-03-13T15:38:54.286Z,13.70
2019-03-13T15:41:24.948Z,14.70
2019-03-13T15:43:55.818Z,20.97
2019-03-13T15:46:26.603Z,11.63
2019-03-13T15:48:57.418Z,15.27
2019-03-13T15:51:27.987Z,11.10
2019-03-13T15:53:59.826Z,14.20
2019-03-13T15:56:30.791Z,26.43
2019-03-13T15:59:01.994Z,19.33
2019-03-13T16:01:32.428Z,10.70
2019-03-13T16:04:03.251Z,20.13
2019-03-13T16:06:35.743Z,16.80
2019-03-13T16:09:08.305Z,13.50
2019-03-13T16:11:38.850Z,16.10
2019-03-13T16:14:10.874Z,17.40
2019-03-13T16:16:41.797Z,18.57
2019-03-13T16:19:12.271Z,17.30
2019-03-13T16:21:44.200Z,16.77
2019-03-13T16:24:14.568Z,19.03
2019-03-13T16:26:45.021Z,10.83
2019-03-13T16:29:17.255Z,13.50
2019-03-13T16:31:48.274Z,14.10
2019-03-13T16:34:18.730Z,12.10
2019-03-13T16:36:49.558Z,12.67
2019-03-13T16:39:20.077Z,9.77
2019-03-13T16:41:51.303Z,11.00
2019-03-13T16:44:22.301Z,9.90
2019-03-13T16:49:58.765Z,12.83
2019-03-13T16:52:29.390Z,16.33
2019-03-13T16:54:59.813Z,13.17
2019-03-13T16:57:30.776Z,11.77
2019-03-13T17:00:01.645Z,13.98
2019-03-13T17:02:32.740Z,21.07
2019-03-13T17:05:03.277Z,22.23
2019-03-13T17:07:33.931Z,20.53
2019-03-13T17:10:05.746Z,17.00
2019-03-13T17:12:37.193Z,17.70
2019-03-13T17:15:10.260Z,12.63
2019-03-13T17:17:41.045Z,12.80
2019-03-13T17:20:14.288Z,16.00
2019-03-13T17:22:46.071Z,13.30
2019-03-13T17:25:19.319Z,15.73
2019-03-13T17:27:50.275Z,19.30
2019-03-13T17:30:22.541Z,17.43
2019-03-13T17:32:53.366Z,14.20
2019-03-13T17:35:24.008Z,12.33
2019-03-13T17:37:54.574Z,17.87
2019-03-13T17:40:25.981Z,15.63
2019-03-13T17:42:56.831Z,13.70
2019-03-13T17:45:27.766Z,22.37
2019-03-13T17:47:59.293Z,20.12
2019-03-13T17:50:30.240Z,14.87
2019-03-13T17:53:01.076Z,18.45
2019-03-13T17:55:31.773Z,16.97
2019-03-13T17:58:05.783Z,29.20
2019-03-13T18:00:42.817Z,23.03
2019-03-13T18:03:13.772Z,24.65
2019-03-13T18:05:44.224Z,27.27
2019-03-13T18:08:15.204Z,16.77
2019-03-13T18:10:45.984Z,18.73
2019-03-13T18:13:16.782Z,18.27
2019-03-13T18:15:47.835Z,20.75
2019-03-13T18:18:20.311Z,29.27
2019-03-13T18:20:51.432Z,28.15
2019-03-13T18:23:23.519Z,30.75
2019-03-13T18:25:55.374Z,22.60
2019-03-13T18:28:28.377Z,21.68
2019-03-13T18:31:01.803Z,14.58
2019-03-13T18:33:31.601Z,16.05
2019-03-13T18:36:02.378Z,14.23
2019-03-13T18:38:33.627Z,17.15
2019-03-13T18:41:04.153Z,19.57
2019-03-13T18:43:34.790Z,20.57
2019-03-13T18:46:06.972Z,24.12
2019-03-13T18:48:39.004Z,23.62
2019-03-13T18:51:13.512Z,23.18
2019-03-13T18:53:43.961Z,15.32
2019-03-13T18:56:15.030Z,18.37
2019-03-13T18:58:45.877Z,20.50
2019-03-13T19:01:16.874Z,15.23
2019-03-13T19:03:47.550Z,20.88
2019-03-13T19:06:18.128Z,17.45
2019-03-13T19:08:49.628Z,28.00
2019-03-13T19:11:20.424Z,24.32
2019-03-13T19:13:53.146Z,21.17
2019-03-13T19:16:23.882Z,15.15
2019-03-13T19:18:55.020Z,23.70
2019-03-13T19:21:25.857Z,20.17
2019-03-13T19:23:56.498Z,20.77
2019-03-13T19:26:27.122Z,19.37
2019-03-13T19:29:01.249Z,18.15
2019-03-13T19:31:30.602Z,19.55
2019-03-13T19:34:01.286Z,14.65
2019-03-13T19:36:32.262Z,24.50
2019-03-13T19:39:03.530Z,19.85
2019-03-13T19:41:35.930Z,23.47
2019-03-13T19:44:06.608Z,22.73
2019-03-13T19:46:37.479Z,15.70
2019-03-13T19:49:08.422Z,17.42
2019-03-13T19:51:40.232Z,18.25
2019-03-13T19:54:11.985Z,15.72
2019-03-13T19:56:43.057Z,15.08
2019-03-13T19:59:14.519Z,15.68
2019-03-13T20:01:45.372Z,22.27
2019-03-13T20:04:16.128Z,11.95
2019-03-13T20:06:47.289Z,33.98
2019-03-13T20:09:17.896Z,23.85
2019-03-13T20:11:52.914Z,21.73
2019-03-13T20:14:23.741Z,14.95
2019-03-13T20:16:54.097Z,19.85
2019-03-13T20:19:24.745Z,18.00
2019-03-13T20:21:55.855Z,19.95
2019-03-13T20:24:26.562Z,24.72
2019-03-13T20:26:57.412Z,16.90
2019-03-13T20:29:27.830Z,15.78
2019-03-13T20:31:58.296Z,28.23
2019-03-13T20:34:29.156Z,33.50
2019-03-13T20:36:59.601Z,46.85
2019-03-13T20:39:30.305Z,34.95
2019-03-13T20:42:00.681Z,25.25
2019-03-13T20:44:31.380Z,25.65
2019-03-13T20:47:01.954Z,22.20
2019-03-13T20:49:32.702Z,20.70
2019-03-13T20:52:04.359Z,17.10
2019-03-13T20:54:35.059Z,19.73
2019-03-13T20:57:05.740Z,24.43
2019-03-13T20:59:36.525Z,21.63
2019-03-13T21:02:07.580Z,25.08
2019-03-13T21:04:38.767Z,18.02
2019-03-13T21:07:09.414Z,11.45
2019-03-13T21:09:39.758Z,14.98
2019-03-13T21:12:10.710Z,13.22
2019-03-13T21:14:41.103Z,10.58
2019-03-13T21:17:11.635Z,12.07
2019-03-13T21:19:43.262Z,14.30
2019-03-13T21:22:13.691Z,13.72
2019-03-13T21:24:44.429Z,21.17
2019-03-13T21:27:15.126Z,19.42
2019-03-13T21:29:45.482Z,24.90
2019-03-13T21:32:16.371Z,18.57
2019-03-13T21:34:47.447Z,18.27
2019-03-13T21:37:17.916Z,14.15
2019-03-13T21:39:48.532Z,23.18
2019-03-13T21:42:21.360Z,16.77
2019-03-13T21:44:52.217Z,14.15
2019-03-13T21:47:22.875Z,22.90
2019-03-13T21:49:53.601Z,14.58
2019-03-13T21:52:24.483Z,19.52
2019-03-13T21:54:55.229Z,20.52
2019-03-13T21:57:26.312Z,15.98
2019-03-13T21:59:57.086Z,21.48
2019-03-13T22:02:32.891Z,16.47
2019-03-13T22:05:00.381Z,16.42
2019-03-13T22:07:31.325Z,13.00
2019-03-13T22:10:03.782Z,17.82
2019-03-13T22:12:34.460Z,17.40
2019-03-13T22:15:05.220Z,19.05
2019-03-13T22:17:36.118Z,19.10
2019-03-13T22:20:07.235Z,15.53
2019-03-13T22:22:39.177Z,17.52
2019-03-13T22:25:10.366Z,17.02
2019-03-13T22:27:41.221Z,15.33
2019-03-13T22:30:15.169Z,17.05
2019-03-13T22:32:45.902Z,18.37
2019-03-13T22:35:17.435Z,15.65
2019-03-13T22:37:48.384Z,21.07
2019-03-13T22:40:19.171Z,15.35
2019-03-13T22:42:51.239Z,24.13
2019-03-13T22:45:22.534Z,20.67
2019-03-13T22:47:53.592Z,24.23
2019-03-13T22:50:24.214Z,19.73
2019-03-13T22:52:55.094Z,18.50
2019-03-13T22:55:26.296Z,16.97
2019-03-13T22:57:57.090Z,25.17
2019-03-13T23:00:52.598Z,11.33
2019-03-13T23:03:23.824Z,18.77
2019-03-13T23:05:55.116Z,17.55
2019-03-13T23:08:26.034Z,11.43
2019-03-13T23:10:56.838Z,13.28
2019-03-13T23:13:28.167Z,15.40
2019-03-13T23:16:00.230Z,16.10
2019-03-13T23:18:31.228Z,16.85
2019-03-13T23:21:04.286Z,16.50
2019-03-13T23:23:35.038Z,15.98
2019-03-13T23:26:05.953Z,11.75
2019-03-13T23:28:36.802Z,12.60
2019-03-13T23:31:10.037Z,12.50
2019-03-13T23:33:40.826Z,14.47
2019-03-13T23:36:11.426Z,13.00
2019-03-13T23:38:43.311Z,8.53
2019-03-13T23:41:14.661Z,9.35
2019-03-13T23:43:45.647Z,13.32
2019-03-13T23:46:16.395Z,10.08
2019-03-13T23:48:47.094Z,9.78
2019-03-13T23:51:18.108Z,14.47
2019-03-13T23:53:49.660Z,12.20
2019-03-13T23:56:20.449Z,11.12
2019-03-13T23:58:51.389Z,12.23
